sensor_id;sensor_type;location;lat;lon;timestamp;P1;durP1;ratioP1;P2;durP2;ratioP2
19595;SDS011;9945;46.010;8.946;2023-04-06T00:00:09;14.20;;;9.27;;
19595;SDS011;9945;46.010;8.946;2023-04-06T00:02:38;11.40;;;9.63;;
19595;SDS011;9945;46.010;8.946;2023-04-06T00:05:06;14.73;;;10.23;;
19595;SDS011;9945;46.010;8.946;2023-04-06T00:07:33;12.00;;;10.17;;
19595;SDS011;9945;46.010;8.946;2023-04-06T00:10:01;12.97;;;9.40;;
19595;SDS011;9945;46.010;8.946;2023-04-06T00:12:28;13.63;;;10.03;;
19595;SDS011;9945;46.010;8.946;2023-04-06T00:14:55;12.63;;;10.20;;
19595;SDS011;9945;46.010;8.946;2023-04-06T00:17:22;13.47;;;10.10;;
19595;SDS011;9945;46.010;8.946;2023-04-06T00:19:50;14.83;;;10.57;;
19595;SDS011;9945;46.010;8.946;2023-04-06T00:22:17;11.20;;;9.73;;
19595;SDS011;9945;46.010;8.946;2023-04-06T00:24:44;12.27;;;10.00;;
19595;SDS011;9945;46.010;8.946;2023-04-06T00:27:11;12.67;;;9.70;;
19595;SDS011;9945;46.010;8.946;2023-04-06T00:29:39;12.83;;;9.50;;
19595;SDS011;9945;46.010;8.946;2023-04-06T00:32:06;10.20;;;9.20;;
19595;SDS011;9945;46.010;8.946;2023-04-06T00:34:33;10.37;;;9.40;;
19595;SDS011;9945;46.010;8.946;2023-04-06T00:37:01;10.83;;;9.43;;
19595;SDS011;9945;46.010;8.946;2023-04-06T00:39:28;11.80;;;10.10;;
19595;SDS011;9945;46.010;8.946;2023-04-06T00:41:55;10.77;;;9.77;;
19595;SDS011;9945;46.010;8.946;2023-04-06T00:44:22;13.77;;;9.30;;
19595;SDS011;9945;46.010;8.946;2023-04-06T00:46:50;12.67;;;10.40;;
19595;SDS011;9945;46.010;8.946;2023-04-06T00:49:17;12.90;;;9.43;;
19595;SDS011;9945;46.010;8.946;2023-04-06T00:51:44;10.80;;;9.37;;
19595;SDS011;9945;46.010;8.946;2023-04-06T00:54:12;9.97;;;8.97;;
19595;SDS011;9945;46.010;8.946;2023-04-06T00:56:41;10.33;;;9.13;;
19595;SDS011;9945;46.010;8.946;2023-04-06T00:59:08;12.23;;;8.87;;
19595;SDS011;9945;46.010;8.946;2023-04-06T01:01:35;14.00;;;10.00;;
19595;SDS011;9945;46.010;8.946;2023-04-06T01:04:02;10.13;;;9.23;;
19595;SDS011;9945;46.010;8.946;2023-04-06T01:06:29;9.77;;;8.57;;
19595;SDS011;9945;46.010;8.946;2023-04-06T01:08:56;10.40;;;9.27;;
19595;SDS011;9945;46.010;8.946;2023-04-06T01:11:24;10.17;;;8.93;;
19595;SDS011;9945;46.010;8.946;2023-04-06T01:13:51;13.37;;;8.70;;
19595;SDS011;9945;46.010;8.946;2023-04-06T01:16:18;11.37;;;8.53;;
19595;SDS011;9945;46.010;8.946;2023-04-06T01:18:45;18.43;;;9.27;;
19595;SDS011;9945;46.010;8.946;2023-04-06T01:21:12;10.87;;;9.27;;
19595;SDS011;9945;46.010;8.946;2023-04-06T01:23:43;13.40;;;9.10;;
19595;SDS011;9945;46.010;8.946;2023-04-06T01:26:11;11.83;;;8.23;;
19595;SDS011;9945;46.010;8.946;2023-04-06T01:28:38;10.33;;;9.20;;
19595;SDS011;9945;46.010;8.946;2023-04-06T01:31:05;9.50;;;8.60;;
19595;SDS011;9945;46.010;8.946;2023-04-06T01:33:33;9.63;;;8.30;;
19595;SDS011;9945;46.010;8.946;2023-04-06T01:36:00;14.80;;;8.67;;
19595;SDS011;9945;46.010;8.946;2023-04-06T01:38:27;12.13;;;9.00;;
19595;SDS011;9945;46.010;8.946;2023-04-06T01:40:57;10.27;;;8.50;;
19595;SDS011;9945;46.010;8.946;2023-04-06T01:43:24;11.73;;;8.10;;
19595;SDS011;9945;46.010;8.946;2023-04-06T01:45:50;9.90;;;8.93;;
19595;SDS011;9945;46.010;8.946;2023-04-06T01:48:18;9.23;;;8.40;;
19595;SDS011;9945;46.010;8.946;2023-04-06T01:50:45;9.50;;;8.57;;
19595;SDS011;9945;46.010;8.946;2023-04-06T01:53:12;9.00;;;8.00;;
19595;SDS011;9945;46.010;8.946;2023-04-06T01:55:39;9.77;;;8.87;;
19595;SDS011;9945;46.010;8.946;2023-04-06T01:58:07;11.27;;;8.13;;
19595;SDS011;9945;46.010;8.946;2023-04-06T02:00:34;9.57;;;8.57;;
19595;SDS011;9945;46.010;8.946;2023-04-06T02:03:01;11.23;;;8.53;;
19595;SDS011;9945;46.010;8.946;2023-04-06T02:05:29;11.90;;;8.50;;
19595;SDS011;9945;46.010;8.946;2023-04-06T02:07:58;9.17;;;8.17;;
19595;SDS011;9945;46.010;8.946;2023-04-06T02:10:25;9.23;;;8.27;;
19595;SDS011;9945;46.010;8.946;2023-04-06T02:12:52;11.50;;;9.17;;
19595;SDS011;9945;46.010;8.946;2023-04-06T02:15:20;12.97;;;8.90;;
19595;SDS011;9945;46.010;8.946;2023-04-06T02:17:47;10.43;;;9.07;;
19595;SDS011;9945;46.010;8.946;2023-04-06T02:20:14;8.57;;;7.77;;
19595;SDS011;9945;46.010;8.946;2023-04-06T02:22:41;11.07;;;8.37;;
19595;SDS011;9945;46.010;8.946;2023-04-06T02:25:08;10.47;;;8.53;;
19595;SDS011;9945;46.010;8.946;2023-04-06T02:27:35;9.87;;;8.80;;
19595;SDS011;9945;46.010;8.946;2023-04-06T02:30:02;14.70;;;8.70;;
19595;SDS011;9945;46.010;8.946;2023-04-06T02:32:31;11.30;;;9.17;;
19595;SDS011;9945;46.010;8.946;2023-04-06T02:34:58;11.33;;;8.20;;
19595;SDS011;9945;46.010;8.946;2023-04-06T02:37:25;12.57;;;8.83;;
19595;SDS011;9945;46.010;8.946;2023-04-06T02:39:52;11.43;;;8.87;;
19595;SDS011;9945;46.010;8.946;2023-04-06T02:42:19;13.00;;;8.60;;
19595;SDS011;9945;46.010;8.946;2023-04-06T02:44:46;9.90;;;8.90;;
19595;SDS011;9945;46.010;8.946;2023-04-06T02:47:13;9.97;;;8.83;;
19595;SDS011;9945;46.010;8.946;2023-04-06T02:49:41;9.17;;;8.33;;
19595;SDS011;9945;46.010;8.946;2023-04-06T02:52:08;9.10;;;8.10;;
19595;SDS011;9945;46.010;8.946;2023-04-06T02:54:35;9.20;;;8.27;;
19595;SDS011;9945;46.010;8.946;2023-04-06T02:57:02;9.60;;;8.63;;
19595;SDS011;9945;46.010;8.946;2023-04-06T02:59:29;10.20;;;9.20;;
19595;SDS011;9945;46.010;8.946;2023-04-06T03:01:56;8.77;;;7.87;;
19595;SDS011;9945;46.010;8.946;2023-04-06T03:04:22;9.50;;;8.50;;
19595;SDS011;9945;46.010;8.946;2023-04-06T03:06:52;9.43;;;8.20;;
19595;SDS011;9945;46.010;8.946;2023-04-06T03:09:20;11.63;;;9.17;;
19595;SDS011;9945;46.010;8.946;2023-04-06T03:11:47;9.73;;;8.70;;
19595;SDS011;9945;46.010;8.946;2023-04-06T03:14:13;8.33;;;7.60;;
19595;SDS011;9945;46.010;8.946;2023-04-06T03:16:42;10.77;;;7.83;;
19595;SDS011;9945;46.010;8.946;2023-04-06T03:19:09;10.57;;;8.13;;
19595;SDS011;9945;46.010;8.946;2023-04-06T03:21:36;8.67;;;7.80;;
19595;SDS011;9945;46.010;8.946;2023-04-06T03:24:05;10.80;;;8.60;;
19595;SDS011;9945;46.010;8.946;2023-04-06T03:26:33;11.00;;;8.90;;
19595;SDS011;9945;46.010;8.946;2023-04-06T03:29:00;8.93;;;8.03;;
19595;SDS011;9945;46.010;8.946;2023-04-06T03:31:26;8.90;;;8.27;;
19595;SDS011;9945;46.010;8.946;2023-04-06T03:33:53;12.70;;;8.50;;
19595;SDS011;9945;46.010;8.946;2023-04-06T03:36:20;9.07;;;8.23;;
19595;SDS011;9945;46.010;8.946;2023-04-06T03:38:47;10.43;;;8.73;;
19595;SDS011;9945;46.010;8.946;2023-04-06T03:41:15;11.37;;;8.37;;
19595;SDS011;9945;46.010;8.946;2023-04-06T03:43:42;10.40;;;9.33;;
19595;SDS011;9945;46.010;8.946;2023-04-06T03:46:09;9.63;;;7.40;;
19595;SDS011;9945;46.010;8.946;2023-04-06T03:48:36;10.70;;;8.07;;
19595;SDS011;9945;46.010;8.946;2023-04-06T03:51:04;10.70;;;8.63;;
19595;SDS011;9945;46.010;8.946;2023-04-06T03:53:31;8.20;;;7.50;;
19595;SDS011;9945;46.010;8.946;2023-04-06T03:55:58;10.90;;;8.67;;
19595;SDS011;9945;46.010;8.946;2023-04-06T03:58:26;11.63;;;7.80;;
19595;SDS011;9945;46.010;8.946;2023-04-06T04:00:53;9.10;;;8.20;;
19595;SDS011;9945;46.010;8.946;2023-04-06T04:03:20;11.83;;;8.50;;
19595;SDS011;9945;46.010;8.946;2023-04-06T04:05:48;8.60;;;7.70;;
19595;SDS011;9945;46.010;8.946;2023-04-06T04:08:16;9.90;;;8.33;;
19595;SDS011;9945;46.010;8.946;2023-04-06T04:10:43;10.13;;;8.40;;
19595;SDS011;9945;46.010;8.946;2023-04-06T04:13:09;8.63;;;7.73;;
19595;SDS011;9945;46.010;8.946;2023-04-06T04:15:38;10.70;;;8.20;;
19595;SDS011;9945;46.010;8.946;2023-04-06T04:18:05;9.80;;;8.40;;
19595;SDS011;9945;46.010;8.946;2023-04-06T04:20:32;15.17;;;8.70;;
19595;SDS011;9945;46.010;8.946;2023-04-06T04:22:59;10.13;;;8.93;;
19595;SDS011;9945;46.010;8.946;2023-04-06T04:25:26;12.03;;;8.37;;
19595;SDS011;9945;46.010;8.946;2023-04-06T04:27:53;9.00;;;8.10;;
19595;SDS011;9945;46.010;8.946;2023-04-06T04:30:19;9.47;;;8.37;;
19595;SDS011;9945;46.010;8.946;2023-04-06T04:32:48;14.40;;;8.87;;
19595;SDS011;9945;46.010;8.946;2023-04-06T04:35:15;9.20;;;7.97;;
19595;SDS011;9945;46.010;8.946;2023-04-06T04:37:41;9.40;;;8.33;;
19595;SDS011;9945;46.010;8.946;2023-04-06T04:40:09;11.27;;;8.57;;
19595;SDS011;9945;46.010;8.946;2023-04-06T04:42:36;9.87;;;8.87;;
19595;SDS011;9945;46.010;8.946;2023-04-06T04:45:03;8.93;;;7.93;;
19595;SDS011;9945;46.010;8.946;2023-04-06T04:47:31;10.70;;;8.40;;
19595;SDS011;9945;46.010;8.946;2023-04-06T04:49:59;9.93;;;8.90;;
19595;SDS011;9945;46.010;8.946;2023-04-06T04:52:26;9.67;;;7.83;;
19595;SDS011;9945;46.010;8.946;2023-04-06T04:54:53;10.23;;;8.50;;
19595;SDS011;9945;46.010;8.946;2023-04-06T04:57:20;11.07;;;8.70;;
19595;SDS011;9945;46.010;8.946;2023-04-06T04:59:48;13.83;;;8.17;;
19595;SDS011;9945;46.010;8.946;2023-04-06T05:02:16;11.17;;;8.43;;
19595;SDS011;9945;46.010;8.946;2023-04-06T05:04:43;8.97;;;7.47;;
19595;SDS011;9945;46.010;8.946;2023-04-06T05:07:11;13.93;;;9.20;;
19595;SDS011;9945;46.010;8.946;2023-04-06T05:09:38;9.07;;;8.17;;
19595;SDS011;9945;46.010;8.946;2023-04-06T05:12:05;10.97;;;8.83;;
19595;SDS011;9945;46.010;8.946;2023-04-06T05:14:32;11.93;;;9.53;;
19595;SDS011;9945;46.010;8.946;2023-04-06T05:16:59;13.30;;;9.20;;
19595;SDS011;9945;46.010;8.946;2023-04-06T05:19:26;10.10;;;8.93;;
19595;SDS011;9945;46.010;8.946;2023-04-06T05:21:53;9.63;;;8.73;;
19595;SDS011;9945;46.010;8.946;2023-04-06T05:24:22;13.57;;;10.17;;
19595;SDS011;9945;46.010;8.946;2023-04-06T05:26:49;10.97;;;9.67;;
19595;SDS011;9945;46.010;8.946;2023-04-06T05:29:16;12.97;;;10.27;;
19595;SDS011;9945;46.010;8.946;2023-04-06T05:31:43;11.03;;;9.90;;
19595;SDS011;9945;46.010;8.946;2023-04-06T05:34:10;12.93;;;9.07;;
19595;SDS011;9945;46.010;8.946;2023-04-06T05:36:37;13.40;;;9.93;;
19595;SDS011;9945;46.010;8.946;2023-04-06T05:39:05;11.50;;;9.87;;
19595;SDS011;9945;46.010;8.946;2023-04-06T05:41:33;14.67;;;10.37;;
19595;SDS011;9945;46.010;8.946;2023-04-06T05:44:00;10.10;;;8.60;;
19595;SDS011;9945;46.010;8.946;2023-04-06T05:46:27;13.10;;;10.03;;
19595;SDS011;9945;46.010;8.946;2023-04-06T05:48:54;11.67;;;9.70;;
19595;SDS011;9945;46.010;8.946;2023-04-06T05:51:21;12.00;;;9.23;;
19595;SDS011;9945;46.010;8.946;2023-04-06T05:53:48;10.77;;;9.10;;
19595;SDS011;9945;46.010;8.946;2023-04-06T05:56:15;10.90;;;9.80;;
19595;SDS011;9945;46.010;8.946;2023-04-06T05:58:44;13.10;;;10.13;;
19595;SDS011;9945;46.010;8.946;2023-04-06T06:01:11;15.77;;;9.50;;
19595;SDS011;9945;46.010;8.946;2023-04-06T06:03:37;11.07;;;8.97;;
19595;SDS011;9945;46.010;8.946;2023-04-06T06:06:04;13.07;;;9.67;;
19595;SDS011;9945;46.010;8.946;2023-04-06T06:08:31;12.87;;;10.17;;
19595;SDS011;9945;46.010;8.946;2023-04-06T06:10:59;15.20;;;9.77;;
19595;SDS011;9945;46.010;8.946;2023-04-06T06:13:25;12.33;;;9.33;;
19595;SDS011;9945;46.010;8.946;2023-04-06T06:15:54;13.23;;;9.67;;
19595;SDS011;9945;46.010;8.946;2023-04-06T06:18:21;13.80;;;9.80;;
19595;SDS011;9945;46.010;8.946;2023-04-06T06:20:48;10.27;;;9.27;;
19595;SDS011;9945;46.010;8.946;2023-04-06T06:23:15;14.90;;;9.77;;
19595;SDS011;9945;46.010;8.946;2023-04-06T06:25:42;15.67;;;10.47;;
19595;SDS011;9945;46.010;8.946;2023-04-06T06:28:08;11.73;;;9.60;;
19595;SDS011;9945;46.010;8.946;2023-04-06T06:30:35;13.80;;;10.00;;
19595;SDS011;9945;46.010;8.946;2023-04-06T06:33:04;18.20;;;11.57;;
19595;SDS011;9945;46.010;8.946;2023-04-06T06:35:31;12.50;;;11.00;;
19595;SDS011;9945;46.010;8.946;2023-04-06T06:37:57;10.83;;;9.73;;
19595;SDS011;9945;46.010;8.946;2023-04-06T06:40:24;11.40;;;9.93;;
19595;SDS011;9945;46.010;8.946;2023-04-06T06:42:52;19.37;;;15.43;;
19595;SDS011;9945;46.010;8.946;2023-04-06T06:45:19;14.00;;;9.67;;
19595;SDS011;9945;46.010;8.946;2023-04-06T06:47:46;11.63;;;9.70;;
19595;SDS011;9945;46.010;8.946;2023-04-06T06:50:14;11.27;;;8.60;;
19595;SDS011;9945;46.010;8.946;2023-04-06T06:52:41;10.37;;;9.20;;
19595;SDS011;9945;46.010;8.946;2023-04-06T06:55:09;14.17;;;9.97;;
19595;SDS011;9945;46.010;8.946;2023-04-06T06:57:37;15.90;;;9.33;;
19595;SDS011;9945;46.010;8.946;2023-04-06T07:00:05;13.17;;;9.80;;
19595;SDS011;9945;46.010;8.946;2023-04-06T07:02:33;17.83;;;10.10;;
19595;SDS011;9945;46.010;8.946;2023-04-06T07:05:02;10.63;;;9.47;;
19595;SDS011;9945;46.010;8.946;2023-04-06T07:07:31;13.83;;;9.00;;
19595;SDS011;9945;46.010;8.946;2023-04-06T07:09:58;13.47;;;9.53;;
19595;SDS011;9945;46.010;8.946;2023-04-06T07:12:25;12.63;;;9.53;;
19595;SDS011;9945;46.010;8.946;2023-04-06T07:14:52;11.33;;;10.33;;
19595;SDS011;9945;46.010;8.946;2023-04-06T07:17:19;18.03;;;9.50;;
19595;SDS011;9945;46.010;8.946;2023-04-06T07:19:46;15.40;;;9.57;;
19595;SDS011;9945;46.010;8.946;2023-04-06T07:22:14;15.57;;;10.60;;
19595;SDS011;9945;46.010;8.946;2023-04-06T07:24:42;15.83;;;10.70;;
19595;SDS011;9945;46.010;8.946;2023-04-06T07:27:09;13.67;;;10.00;;
19595;SDS011;9945;46.010;8.946;2023-04-06T07:29:36;13.23;;;10.10;;
19595;SDS011;9945;46.010;8.946;2023-04-06T07:32:03;14.80;;;9.83;;
19595;SDS011;9945;46.010;8.946;2023-04-06T07:34:30;15.67;;;10.33;;
19595;SDS011;9945;46.010;8.946;2023-04-06T07:36:57;12.80;;;9.63;;
19595;SDS011;9945;46.010;8.946;2023-04-06T07:39:25;12.53;;;9.73;;
19595;SDS011;9945;46.010;8.946;2023-04-06T07:41:54;11.93;;;8.83;;
19595;SDS011;9945;46.010;8.946;2023-04-06T07:44:21;11.03;;;8.73;;
19595;SDS011;9945;46.010;8.946;2023-04-06T07:46:48;11.13;;;8.93;;
19595;SDS011;9945;46.010;8.946;2023-04-06T07:49:15;11.03;;;8.73;;
19595;SDS011;9945;46.010;8.946;2023-04-06T07:51:42;16.73;;;9.17;;
19595;SDS011;9945;46.010;8.946;2023-04-06T07:54:09;12.30;;;8.33;;
19595;SDS011;9945;46.010;8.946;2023-04-06T07:56:36;14.30;;;9.17;;
19595;SDS011;9945;46.010;8.946;2023-04-06T07:59:04;11.03;;;9.37;;
19595;SDS011;9945;46.010;8.946;2023-04-06T08:01:31;9.70;;;8.70;;
19595;SDS011;9945;46.010;8.946;2023-04-06T08:03:58;8.77;;;7.87;;
19595;SDS011;9945;46.010;8.946;2023-04-06T08:06:27;10.13;;;8.87;;
19595;SDS011;9945;46.010;8.946;2023-04-06T08:08:54;13.57;;;9.60;;
19595;SDS011;9945;46.010;8.946;2023-04-06T08:11:21;12.93;;;9.33;;
19595;SDS011;9945;46.010;8.946;2023-04-06T08:13:48;13.30;;;9.80;;
19595;SDS011;9945;46.010;8.946;2023-04-06T08:16:16;12.07;;;9.53;;
19595;SDS011;9945;46.010;8.946;2023-04-06T08:18:43;12.30;;;9.10;;
19595;SDS011;9945;46.010;8.946;2023-04-06T08:21:10;13.27;;;9.35;;
19595;SDS011;9945;46.010;8.946;2023-04-06T08:23:37;14.13;;;9.87;;
19595;SDS011;9945;46.010;8.946;2023-04-06T08:26:04;12.07;;;9.17;;
19595;SDS011;9945;46.010;8.946;2023-04-06T08:28:31;9.70;;;8.70;;
19595;SDS011;9945;46.010;8.946;2023-04-06T08:31:02;10.13;;;8.82;;
19595;SDS011;9945;46.010;8.946;2023-04-06T08:33:31;10.32;;;9.27;;
19595;SDS011;9945;46.010;8.946;2023-04-06T08:36:06;11.75;;;8.32;;
19595;SDS011;9945;46.010;8.946;2023-04-06T08:38:33;9.15;;;8.30;;
19595;SDS011;9945;46.010;8.946;2023-04-06T08:41:06;9.93;;;8.00;;
19595;SDS011;9945;46.010;8.946;2023-04-06T08:43:34;10.52;;;8.27;;
19595;SDS011;9945;46.010;8.946;2023-04-06T08:46:09;9.45;;;7.57;;
19595;SDS011;9945;46.010;8.946;2023-04-06T08:48:39;8.93;;;8.02;;
19595;SDS011;9945;46.010;8.946;2023-04-06T08:51:07;10.13;;;8.82;;
19595;SDS011;9945;46.010;8.946;2023-04-06T08:53:35;9.43;;;8.45;;
19595;SDS011;9945;46.010;8.946;2023-04-06T08:56:02;12.30;;;8.57;;
19595;SDS011;9945;46.010;8.946;2023-04-06T08:58:32;12.38;;;9.05;;
19595;SDS011;9945;46.010;8.946;2023-04-06T09:01:01;11.93;;;9.65;;
19595;SDS011;9945;46.010;8.946;2023-04-06T09:03:32;10.82;;;9.27;;
19595;SDS011;9945;46.010;8.946;2023-04-06T09:06:06;13.20;;;9.75;;
19595;SDS011;9945;46.010;8.946;2023-04-06T09:08:34;8.60;;;7.90;;
19595;SDS011;9945;46.010;8.946;2023-04-06T09:11:01;9.30;;;8.40;;
19595;SDS011;9945;46.010;8.946;2023-04-06T09:13:29;9.05;;;8.07;;
19595;SDS011;9945;46.010;8.946;2023-04-06T09:16:00;9.80;;;7.75;;
19595;SDS011;9945;46.010;8.946;2023-04-06T09:18:28;10.38;;;7.57;;
19595;SDS011;9945;46.010;8.946;2023-04-06T09:20:59;10.43;;;7.20;;
19595;SDS011;9945;46.010;8.946;2023-04-06T09:23:29;9.93;;;8.93;;
19595;SDS011;9945;46.010;8.946;2023-04-06T09:26:06;8.25;;;7.55;;
19595;SDS011;9945;46.010;8.946;2023-04-06T09:28:41;8.25;;;7.45;;
19595;SDS011;9945;46.010;8.946;2023-04-06T09:31:12;8.65;;;7.75;;
19595;SDS011;9945;46.010;8.946;2023-04-06T09:33:40;8.48;;;7.25;;
19595;SDS011;9945;46.010;8.946;2023-04-06T09:36:08;8.95;;;7.95;;
19595;SDS011;9945;46.010;8.946;2023-04-06T09:38:51;8.68;;;7.93;;
19595;SDS011;9945;46.010;8.946;2023-04-06T09:41:20;8.40;;;7.80;;
19595;SDS011;9945;46.010;8.946;2023-04-06T09:43:49;11.13;;;8.02;;
19595;SDS011;9945;46.010;8.946;2023-04-06T09:46:16;8.63;;;7.95;;
19595;SDS011;9945;46.010;8.946;2023-04-06T09:48:47;10.35;;;8.00;;
19595;SDS011;9945;46.010;8.946;2023-04-06T09:51:16;9.10;;;8.10;;
19595;SDS011;9945;46.010;8.946;2023-04-06T09:53:46;9.07;;;8.15;;
19595;SDS011;9945;46.010;8.946;2023-04-06T09:56:20;13.07;;;8.77;;
19595;SDS011;9945;46.010;8.946;2023-04-06T09:58:52;9.88;;;9.00;;
19595;SDS011;9945;46.010;8.946;2023-04-06T10:01:23;10.10;;;9.07;;
19595;SDS011;9945;46.010;8.946;2023-04-06T10:03:55;9.70;;;8.80;;
19595;SDS011;9945;46.010;8.946;2023-04-06T10:06:31;9.70;;;8.65;;
19595;SDS011;9945;46.010;8.946;2023-04-06T10:09:02;8.73;;;7.97;;
19595;SDS011;9945;46.010;8.946;2023-04-06T10:11:33;9.50;;;8.57;;
19595;SDS011;9945;46.010;8.946;2023-04-06T10:14:00;11.48;;;7.63;;
19595;SDS011;9945;46.010;8.946;2023-04-06T10:16:28;10.07;;;7.60;;
19595;SDS011;9945;46.010;8.946;2023-04-06T10:18:56;8.90;;;7.95;;
19595;SDS011;9945;46.010;8.946;2023-04-06T10:21:28;9.93;;;7.65;;
19595;SDS011;9945;46.010;8.946;2023-04-06T10:23:58;10.50;;;8.05;;
19595;SDS011;9945;46.010;8.946;2023-04-06T10:26:28;9.07;;;8.38;;
19595;SDS011;9945;46.010;8.946;2023-04-06T10:29:01;11.68;;;9.18;;
19595;SDS011;9945;46.010;8.946;2023-04-06T10:31:29;8.10;;;7.40;;
19595;SDS011;9945;46.010;8.946;2023-04-06T10:33:57;9.18;;;8.38;;
19595;SDS011;9945;46.010;8.946;2023-04-06T10:36:26;8.63;;;7.93;;
19595;SDS011;9945;46.010;8.946;2023-04-06T10:38:56;8.65;;;7.80;;
19595;SDS011;9945;46.010;8.946;2023-04-06T10:41:32;8.88;;;8.15;;
19595;SDS011;9945;46.010;8.946;2023-04-06T10:44:00;10.05;;;7.65;;
19595;SDS011;9945;46.010;8.946;2023-04-06T10:46:28;8.23;;;7.53;;
19595;SDS011;9945;46.010;8.946;2023-04-06T10:48:56;8.73;;;7.95;;
19595;SDS011;9945;46.010;8.946;2023-04-06T10:51:26;9.82;;;7.90;;
19595;SDS011;9945;46.010;8.946;2023-04-06T10:53:54;8.88;;;7.45;;
19595;SDS011;9945;46.010;8.946;2023-04-06T10:56:23;8.60;;;7.65;;
19595;SDS011;9945;46.010;8.946;2023-04-06T10:58:54;10.55;;;7.43;;
19595;SDS011;9945;46.010;8.946;2023-04-06T11:01:22;6.90;;;6.40;;
19595;SDS011;9945;46.010;8.946;2023-04-06T11:03:53;8.10;;;7.25;;
19595;SDS011;9945;46.010;8.946;2023-04-06T11:06:21;10.20;;;7.93;;
19595;SDS011;9945;46.010;8.946;2023-04-06T11:08:49;9.18;;;8.38;;
19595;SDS011;9945;46.010;8.946;2023-04-06T11:11:17;8.43;;;7.53;;
19595;SDS011;9945;46.010;8.946;2023-04-06T11:13:46;9.05;;;8.18;;
19595;SDS011;9945;46.010;8.946;2023-04-06T11:16:17;7.82;;;7.22;;
19595;SDS011;9945;46.010;8.946;2023-04-06T11:18:52;7.90;;;7.22;;
19595;SDS011;9945;46.010;8.946;2023-04-06T11:21:30;8.45;;;7.60;;
19595;SDS011;9945;46.010;8.946;2023-04-06T11:24:07;9.13;;;7.30;;
19595;SDS011;9945;46.010;8.946;2023-04-06T11:26:39;7.75;;;6.97;;
19595;SDS011;9945;46.010;8.946;2023-04-06T11:29:08;8.45;;;7.57;;
19595;SDS011;9945;46.010;8.946;2023-04-06T11:31:41;8.18;;;7.50;;
19595;SDS011;9945;46.010;8.946;2023-04-06T11:34:09;10.07;;;7.78;;
19595;SDS011;9945;46.010;8.946;2023-04-06T11:36:39;9.38;;;7.80;;
19595;SDS011;9945;46.010;8.946;2023-04-06T11:39:07;11.45;;;8.15;;
19595;SDS011;9945;46.010;8.946;2023-04-06T11:41:35;8.27;;;7.53;;
19595;SDS011;9945;46.010;8.946;2023-04-06T11:44:02;9.75;;;8.10;;
19595;SDS011;9945;46.010;8.946;2023-04-06T11:46:29;12.32;;;8.68;;
19595;SDS011;9945;46.010;8.946;2023-04-06T11:48:59;11.48;;;8.75;;
19595;SDS011;9945;46.010;8.946;2023-04-06T11:51:27;8.23;;;7.35;;
19595;SDS011;9945;46.010;8.946;2023-04-06T11:53:54;9.10;;;8.13;;
19595;SDS011;9945;46.010;8.946;2023-04-06T11:56:25;10.60;;;7.78;;
19595;SDS011;9945;46.010;8.946;2023-04-06T11:58:54;9.68;;;8.75;;
19595;SDS011;9945;46.010;8.946;2023-04-06T12:01:21;9.30;;;8.40;;
19595;SDS011;9945;46.010;8.946;2023-04-06T12:03:49;9.45;;;8.38;;
19595;SDS011;9945;46.010;8.946;2023-04-06T12:06:17;9.15;;;8.23;;
19595;SDS011;9945;46.010;8.946;2023-04-06T12:08:44;13.05;;;9.27;;
19595;SDS011;9945;46.010;8.946;2023-04-06T12:11:11;8.82;;;8.07;;
19595;SDS011;9945;46.010;8.946;2023-04-06T12:13:38;10.10;;;9.20;;
19595;SDS011;9945;46.010;8.946;2023-04-06T12:16:05;9.13;;;8.43;;
19595;SDS011;9945;46.010;8.946;2023-04-06T12:18:32;8.93;;;8.25;;
19595;SDS011;9945;46.010;8.946;2023-04-06T12:21:00;10.10;;;9.05;;
19595;SDS011;9945;46.010;8.946;2023-04-06T12:23:28;9.98;;;9.05;;
19595;SDS011;9945;46.010;8.946;2023-04-06T12:25:55;9.13;;;7.90;;
19595;SDS011;9945;46.010;8.946;2023-04-06T12:28:22;8.68;;;7.97;;
19595;SDS011;9945;46.010;8.946;2023-04-06T12:30:52;8.90;;;8.10;;
19595;SDS011;9945;46.010;8.946;2023-04-06T12:33:19;9.75;;;8.88;;
19595;SDS011;9945;46.010;8.946;2023-04-06T12:35:46;10.07;;;9.10;;
19595;SDS011;9945;46.010;8.946;2023-04-06T12:38:13;10.13;;;9.13;;
19595;SDS011;9945;46.010;8.946;2023-04-06T12:40:41;11.10;;;8.63;;
19595;SDS011;9945;46.010;8.946;2023-04-06T12:43:08;9.40;;;8.70;;
19595;SDS011;9945;46.010;8.946;2023-04-06T12:45:35;9.85;;;8.93;;
19595;SDS011;9945;46.010;8.946;2023-04-06T12:48:02;10.32;;;8.18;;
19595;SDS011;9945;46.010;8.946;2023-04-06T12:50:29;10.57;;;9.13;;
19595;SDS011;9945;46.010;8.946;2023-04-06T12:52:56;10.48;;;8.73;;
19595;SDS011;9945;46.010;8.946;2023-04-06T12:55:23;13.15;;;10.43;;
19595;SDS011;9945;46.010;8.946;2023-04-06T12:57:53;11.35;;;10.27;;
19595;SDS011;9945;46.010;8.946;2023-04-06T13:00:20;11.05;;;9.80;;
19595;SDS011;9945;46.010;8.946;2023-04-06T13:02:47;10.90;;;9.98;;
19595;SDS011;9945;46.010;8.946;2023-04-06T13:05:14;10.50;;;9.43;;
19595;SDS011;9945;46.010;8.946;2023-04-06T13:07:44;11.48;;;10.35;;
19595;SDS011;9945;46.010;8.946;2023-04-06T13:10:12;11.60;;;10.40;;
19595;SDS011;9945;46.010;8.946;2023-04-06T13:12:39;10.98;;;10.07;;
19595;SDS011;9945;46.010;8.946;2023-04-06T13:15:08;14.55;;;10.32;;
19595;SDS011;9945;46.010;8.946;2023-04-06T13:17:35;10.73;;;9.73;;
19595;SDS011;9945;46.010;8.946;2023-04-06T13:20:02;10.48;;;9.40;;
19595;SDS011;9945;46.010;8.946;2023-04-06T13:22:31;10.25;;;9.18;;
19595;SDS011;9945;46.010;8.946;2023-04-06T13:24:58;10.57;;;9.57;;
19595;SDS011;9945;46.010;8.946;2023-04-06T13:27:24;11.63;;;10.43;;
19595;SDS011;9945;46.010;8.946;2023-04-06T13:29:52;13.65;;;9.77;;
19595;SDS011;9945;46.010;8.946;2023-04-06T13:32:21;11.50;;;10.25;;
19595;SDS011;9945;46.010;8.946;2023-04-06T13:34:48;10.82;;;9.63;;
19595;SDS011;9945;46.010;8.946;2023-04-06T13:37:15;12.23;;;10.00;;
19595;SDS011;9945;46.010;8.946;2023-04-06T13:39:42;11.50;;;9.38;;
19595;SDS011;9945;46.010;8.946;2023-04-06T13:42:09;10.57;;;9.23;;
19595;SDS011;9945;46.010;8.946;2023-04-06T13:44:36;10.85;;;9.50;;
19595;SDS011;9945;46.010;8.946;2023-04-06T13:47:03;12.05;;;10.02;;
19595;SDS011;9945;46.010;8.946;2023-04-06T13:49:31;10.27;;;9.32;;
19595;SDS011;9945;46.010;8.946;2023-04-06T13:51:58;13.52;;;9.38;;
19595;SDS011;9945;46.010;8.946;2023-04-06T13:54:26;10.30;;;9.30;;
19595;SDS011;9945;46.010;8.946;2023-04-06T13:56:53;10.35;;;9.38;;
19595;SDS011;9945;46.010;8.946;2023-04-06T13:59:21;11.23;;;9.40;;
19595;SDS011;9945;46.010;8.946;2023-04-06T14:01:48;12.13;;;10.35;;
19595;SDS011;9945;46.010;8.946;2023-04-06T14:04:15;10.20;;;9.15;;
19595;SDS011;9945;46.010;8.946;2023-04-06T14:06:44;10.70;;;9.57;;
19595;SDS011;9945;46.010;8.946;2023-04-06T14:09:11;9.50;;;8.50;;
19595;SDS011;9945;46.010;8.946;2023-04-06T14:11:37;11.43;;;9.98;;
19595;SDS011;9945;46.010;8.946;2023-04-06T14:14:04;12.20;;;9.57;;
19595;SDS011;9945;46.010;8.946;2023-04-06T14:16:31;11.10;;;9.18;;
19595;SDS011;9945;46.010;8.946;2023-04-06T14:18:58;10.55;;;9.55;;
19595;SDS011;9945;46.010;8.946;2023-04-06T14:21:25;9.68;;;8.77;;
19595;SDS011;9945;46.010;8.946;2023-04-06T14:23:53;10.77;;;9.65;;
19595;SDS011;9945;46.010;8.946;2023-04-06T14:26:21;11.52;;;9.20;;
19595;SDS011;9945;46.010;8.946;2023-04-06T14:28:49;11.13;;;8.98;;
19595;SDS011;9945;46.010;8.946;2023-04-06T14:31:16;8.85;;;8.05;;
19595;SDS011;9945;46.010;8.946;2023-04-06T14:33:44;13.52;;;9.10;;
19595;SDS011;9945;46.010;8.946;2023-04-06T14:36:11;9.77;;;8.65;;
19595;SDS011;9945;46.010;8.946;2023-04-06T14:38:38;10.27;;;8.30;;
19595;SDS011;9945;46.010;8.946;2023-04-06T14:41:07;12.23;;;8.82;;
19595;SDS011;9945;46.010;8.946;2023-04-06T14:43:35;11.43;;;8.82;;
19595;SDS011;9945;46.010;8.946;2023-04-06T14:46:02;9.23;;;8.38;;
19595;SDS011;9945;46.010;8.946;2023-04-06T14:48:29;9.88;;;8.90;;
19595;SDS011;9945;46.010;8.946;2023-04-06T14:50:56;9.43;;;8.48;;
19595;SDS011;9945;46.010;8.946;2023-04-06T14:53:24;10.05;;;8.80;;